Time;durP1;ratioP1;P1;durP2;ratioP2;P2;SDS_P1;SDS_P2;PMS_P1;PMS_P2;Temp;Humidity;BMP_temperature;BMP_pressure;BME280_temperature;BME280_humidity;BME280_pressure;Samples;Min_cycle;Max_cycle;Signal;HPM_P1;HPM_P2
2021/12/09 00:01:10;;;;;;;1.20;0.80;;;;;;;;;;20914765;28;20132;-54
2021/12/09 00:11:12;;;;;;;4.15;0.80;;;;;;;;;;20914211;28;20053;-54
2021/12/09 00:21:14;;;;;;;2.08;0.90;;;;;;;;;;20913060;28;20475;-55
2021/12/09 00:31:18;;;;;;;2.53;0.88;;;;;;;;;;20912486;28;20045;-55
2021/12/09 00:41:21;;;;;;;2.53;0.85;;;;;;;;;;20912161;28;20060;-57
2021/12/09 00:51:23;;;;;;;3.78;1.00;;;;;;;;;;20911183;28;20049;-55
2021/12/09 01:01:25;;;;;;;3.00;1.00;;;;;;;;;;20912301;28;20064;-54
2021/12/09 01:11:27;;;;;;;2.90;1.10;;;;;;;;;;20911701;28;20079;-58
2021/12/09 01:21:30;;;;;;;1.40;0.80;;;;;;;;;;20927649;28;20053;-61
2021/12/09 01:31:37;;;;;;;3.33;0.80;;;;;;;;;;20925904;28;20049;-54
2021/12/09 01:41:39;;;;;;;3.47;0.85;;;;;;;;;;20924889;28;20056;-56
2021/12/09 01:51:46;;;;;;;2.67;0.70;;;;;;;;;;20924332;28;20053;-61
2021/12/09 02:01:48;;;;;;;2.50;0.70;;;;;;;;;;20924109;28;20195;-56
2021/12/09 02:11:50;;;;;;;1.73;0.70;;;;;;;;;;20923201;28;20124;-55
2021/12/09 02:21:53;;;;;;;3.25;1.42;;;;;;;;;;20922321;28;20053;-54
2021/12/09 02:31:58;;;;;;;2.42;0.80;;;;;;;;;;20922206;28;20041;-55
2021/12/09 02:42:01;;;;;;;1.92;0.70;;;;;;;;;;20920463;28;20498;-58
2021/12/09 02:52:05;;;;;;;2.08;1.60;;;;;;;;;;20919959;28;20565;-55
2021/12/09 03:02:07;;;;;;;2.72;0.70;;;;;;;;;;20919677;28;20510;-55
2021/12/09 03:12:12;;;;;;;1.25;0.90;;;;;;;;;;20919081;28;20052;-54
2021/12/09 03:22:16;;;;;;;6.78;0.90;;;;;;;;;;20918138;28;20045;-54
2021/12/09 03:32:21;;;;;;;2.38;1.15;;;;;;;;;;20917172;28;20084;-55
2021/12/09 03:42:25;;;;;;;;;;;;;;;;;;20916923;28;20045;-53
2021/12/09 03:52:29;;;;;;;2.42;0.65;;;;;;;;;;20915804;28;20016;-55
2021/12/09 04:02:36;;;;;;;2.25;0.70;;;;;;;;;;20915337;28;20057;-57
2021/12/09 04:12:49;;;;;;;2.30;0.60;;;;;;;;;;20914338;28;20049;-58
2021/12/09 04:23:11;;;;;;;2.50;0.50;;;;;;;;;;20914178;28;20064;-54
2021/12/09 04:33:33;;;;;;;0.82;0.50;;;;;;;;;;20914202;28;20045;-54
2021/12/09 04:43:55;;;;;;;2.47;0.50;;;;;;;;;;20912001;28;20049;-55
2021/12/09 04:54:16;;;;;;;1.30;0.50;;;;;;;;;;20925678;28;20060;-55
2021/12/09 05:04:38;;;;;;;0.77;0.45;;;;;;;;;;20928425;28;20049;-55
2021/12/09 05:14:49;;;;;;;0.75;0.45;;;;;;;;;;20927701;28;20045;-55
2021/12/09 05:24:54;;;;;;;;;;;;;;;;;;20926688;28;20053;-54
2021/12/09 05:34:59;;;;;;;3.22;0.70;;;;;;;;;;20926098;28;19924;-55
2021/12/09 05:45:04;;;;;;;1.13;0.47;;;;;;;;;;20926337;28;20048;-53
2021/12/09 05:55:09;;;;;;;1.53;0.60;;;;;;;;;;20924588;28;20053;-55
2021/12/09 06:05:13;;;;;;;0.85;0.50;;;;;;;;;;20923634;28;20506;-55
2021/12/09 06:15:18;;;;;;;2.15;0.60;;;;;;;;;;20922994;28;20056;-55
2021/12/09 06:25:21;;;;;;;2.03;0.68;;;;;;;;;;20922164;28;20049;-54
2021/12/09 06:35:28;;;;;;;2.03;0.70;;;;;;;;;;20921394;28;20049;-54
2021/12/09 06:45:32;;;;;;;1.23;0.70;;;;;;;;;;20920090;28;20056;-57
2021/12/09 06:55:34;;;;;;;2.22;0.80;;;;;;;;;;20920092;28;20049;-55
2021/12/09 07:05:36;;;;;;;2.70;1.10;;;;;;;;;;20918397;28;20053;-59
2021/12/09 07:15:39;;;;;;;4.90;1.17;;;;;;;;;;20916006;28;20052;-58
2021/12/09 07:25:44;;;;;;;3.70;1.00;;;;;;;;;;20916496;28;20384;-55
2021/12/09 07:35:47;;;;;;;3.75;1.30;;;;;;;;;;20916916;28;20506;-60
2021/12/09 07:45:50;;;;;;;2.60;1.05;;;;;;;;;;20915478;28;20422;-55
2021/12/09 07:55:53;;;;;;;3.85;1.60;;;;;;;;;;20914832;28;20048;-55
2021/12/09 08:05:56;;;;;;;5.65;2.30;;;;;;;;;;20913681;28;20052;-56
2021/12/09 08:16:00;;;;;;;5.57;2.00;;;;;;;;;;20912794;28;20348;-55
2021/12/09 08:26:03;;;;;;;5.72;1.95;;;;;;;;;;20909803;28;20098;-59
2021/12/09 08:36:13;;;;;;;6.18;2.03;;;;;;;;;;20913911;28;20044;-59
2021/12/09 08:46:35;;;;;;;9.32;2.42;;;;;;;;;;20910767;28;20077;-56
2021/12/09 08:56:57;;;;;;;9.80;3.10;;;;;;;;;;20912197;28;20052;-56
2021/12/09 09:07:19;;;;;;;6.95;2.03;;;;;;;;;;20911682;28;20415;-56
2021/12/09 09:17:41;;;;;;;7.28;1.55;;;;;;;;;;20911653;28;20075;-55
2021/12/09 09:28:02;;;;;;;4.88;1.27;;;;;;;;;;20909685;28;20060;-56
2021/12/09 09:38:24;;;;;;;4.82;1.63;;;;;;;;;;20921713;28;20113;-56
2021/12/09 09:48:47;;;;;;;4.80;1.80;;;;;;;;;;20924658;28;20064;-55
2021/12/09 09:59:10;;;;;;;4.40;1.75;;;;;;;;;;20924726;28;20118;-61
2021/12/09 10:09:31;;;;;;;5.45;1.63;;;;;;;;;;20925233;28;20487;-56
2021/12/09 10:19:55;;;;;;;5.20;1.77;;;;;;;;;;20923999;28;20455;-56
2021/12/09 10:30:02;;;;;;;6.70;2.42;;;;;;;;;;20921520;28;20045;-56
2021/12/09 10:40:30;;;;;;;5.97;2.10;;;;;;;;;;20922091;28;20057;-66
2021/12/09 11:01:16;;;;;;;3.65;1.90;;;;;;;;;;20919861;28;20502;-70
2021/12/09 11:11:28;;;;;;;6.97;1.73;;;;;;;;;;20918514;28;20495;-54
2021/12/09 11:21:41;;;;;;;9.15;2.28;;;;;;;;;;20912850;28;20142;-58
2021/12/09 11:31:59;;;;;;;10.13;3.43;;;;;;;;;;20910739;28;20482;-55
2021/12/09 11:42:14;;;;;;;16.63;5.93;;;;;;;;;;20909739;28;20044;-57
2021/12/09 11:52:20;;;;;;;10.70;6.25;;;;;;;;;;20909744;28;20049;-72
2021/12/09 12:13:05;;;;;;;13.57;4.85;;;;;;;;;;20913487;28;20425;-64
2021/12/09 12:23:29;;;;;;;15.77;8.27;;;;;;;;;;20913200;28;20449;-57
2021/12/09 12:34:15;;;;;;;21.75;9.82;;;;;;;;;;20913419;28;20479;-66
2021/12/09 12:44:21;;;;;;;6.05;2.80;;;;;;;;;;20913601;28;20067;-59
2021/12/09 13:05:07;;;;;;;5.28;2.10;;;;;;;;;;20911101;28;20504;-63
2021/12/09 13:15:23;;;;;;;2.15;1.10;;;;;;;;;;20924692;28;20122;-61
2021/12/09 13:25:31;;;;;;;2.45;1.35;;;;;;;;;;20925939;28;20048;-60
2021/12/09 13:56:36;;;;;;;3.20;1.15;;;;;;;;;;20915431;28;20416;-62
2021/12/09 14:06:48;;;;;;;1.42;0.75;;;;;;;;;;20915052;28;20049;-59
2021/12/09 14:27:01;;;;;;;3.25;1.13;;;;;;;;;;20915808;28;20517;-58
2021/12/09 14:37:07;;;;;;;1.75;1.08;;;;;;;;;;20921966;28;20053;-57
2021/12/09 14:47:12;;;;;;;1.92;0.82;;;;;;;;;;20920557;28;20110;-57
2021/12/09 14:57:14;;;;;;;1.95;0.75;;;;;;;;;;20920404;28;20073;-60
2021/12/09 15:07:37;;;;;;;3.22;1.02;;;;;;;;;;20919205;28;20102;-61
2021/12/09 15:17:53;;;;;;;3.42;1.02;;;;;;;;;;20919516;28;20049;-68
2021/12/09 15:28:00;;;;;;;3.40;0.70;;;;;;;;;;20917752;28;20045;-65
2021/12/09 15:38:17;;;;;;;2.72;1.50;;;;;;;;;;20916864;28;20045;-65
2021/12/09 15:48:21;;;;;;;1.75;1.00;;;;;;;;;;20916286;28;20177;-65
2021/12/09 15:58:24;;;;;;;2.60;0.90;;;;;;;;;;20915991;28;20544;-60
2021/12/09 16:08:28;;;;;;;4.30;0.80;;;;;;;;;;20914881;28;20107;-65
2021/12/09 16:18:39;;;;;;;2.27;0.90;;;;;;;;;;20913358;28;20087;-63
2021/12/09 16:28:42;;;;;;;2.45;1.23;;;;;;;;;;20912799;28;20064;-63
2021/12/09 16:38:46;;;;;;;1.80;0.90;;;;;;;;;;20912976;28;20102;-64
2021/12/09 16:48:55;;;;;;;2.78;1.05;;;;;;;;;;20932788;28;20057;-65
2021/12/09 16:59:03;;;;;;;2.85;0.85;;;;;;;;;;20940455;28;20136;-63
2021/12/09 17:09:05;;;;;;;2.28;1.10;;;;;;;;;;20938976;28;20057;-66
2021/12/09 17:19:13;;;;;;;3.88;0.70;;;;;;;;;;20938852;28;20040;-67
2021/12/09 17:29:17;;;;;;;2.55;0.80;;;;;;;;;;20938154;28;20576;-66
2021/12/09 17:39:20;;;;;;;2.45;0.95;;;;;;;;;;20939524;28;20053;-66
2021/12/09 17:49:23;;;;;;;1.88;0.80;;;;;;;;;;20937749;28;20519;-65
2021/12/09 17:59:26;;;;;;;2.55;0.85;;;;;;;;;;20927790;28;20124;-68
2021/12/09 18:09:33;;;;;;;3.13;2.00;;;;;;;;;;20923673;28;20052;-67
2021/12/09 18:19:36;;;;;;;2.42;1.20;;;;;;;;;;20922406;28;20053;-59
2021/12/09 18:29:39;;;;;;;1.75;0.95;;;;;;;;;;20922035;28;20048;-68
2021/12/09 18:39:44;;;;;;;1.58;0.95;;;;;;;;;;20921759;28;20076;-62
2021/12/09 18:49:50;;;;;;;2.05;0.90;;;;;;;;;;20920007;28;20056;-67
2021/12/09 18:59:52;;;;;;;3.30;1.15;;;;;;;;;;20919712;28;20182;-58
2021/12/09 19:09:54;;;;;;;2.15;1.00;;;;;;;;;;20917891;28;20073;-62
2021/12/09 19:19:59;;;;;;;3.50;1.55;;;;;;;;;;20918588;28;20098;-60
2021/12/09 19:30:01;;;;;;;3.50;2.10;;;;;;;;;;20918040;28;20044;-66
2021/12/09 19:40:05;;;;;;;2.45;1.65;;;;;;;;;;20917199;28;20095;-67
2021/12/09 19:50:07;;;;;;;2.92;1.10;;;;;;;;;;20916364;28;20108;-65
2021/12/09 20:00:10;;;;;;;2.78;1.23;;;;;;;;;;20915879;28;20049;-62
2021/12/09 20:10:16;;;;;;;5.43;1.70;;;;;;;;;;20914915;28;20489;-69
2021/12/09 20:20:19;;;;;;;1.40;0.83;;;;;;;;;;20912789;28;20297;-60
2021/12/09 20:30:23;;;;;;;2.88;1.20;;;;;;;;;;20913413;28;20409;-62
2021/12/09 20:40:32;;;;;;;4.13;1.60;;;;;;;;;;20912872;28;20056;-61
2021/12/09 20:50:35;;;;;;;4.25;1.00;;;;;;;;;;20912522;28;20053;-67
2021/12/09 21:00:38;;;;;;;2.55;1.17;;;;;;;;;;20912582;28;20056;-67
2021/12/09 21:10:41;;;;;;;1.77;0.90;;;;;;;;;;20911561;28;20090;-61
2021/12/09 21:20:43;;;;;;;2.33;1.10;;;;;;;;;;20911552;28;20061;-67
2021/12/09 21:30:46;;;;;;;4.30;1.95;;;;;;;;;;20915108;28;20521;-68
2021/12/09 21:40:48;;;;;;;6.97;3.13;;;;;;;;;;20927494;28;20048;-68
2021/12/09 21:50:52;;;;;;;2.45;1.30;;;;;;;;;;20926676;28;20509;-60
2021/12/09 22:00:58;;;;;;;4.32;2.05;;;;;;;;;;20924943;28;20056;-70
2021/12/09 22:11:03;;;;;;;4.25;2.33;;;;;;;;;;20924756;28;20049;-66
2021/12/09 22:21:06;;;;;;;3.33;1.70;;;;;;;;;;20923076;28;20147;-59
2021/12/09 22:31:08;;;;;;;3.22;1.30;;;;;;;;;;20922932;28;20479;-58
2021/12/09 22:41:11;;;;;;;3.13;1.17;;;;;;;;;;20922275;28;20088;-63
2021/12/09 22:51:20;;;;;;;1.60;0.80;;;;;;;;;;20921013;28;20057;-67
2021/12/09 23:01:25;;;;;;;2.60;1.42;;;;;;;;;;20920323;28;20055;-69
2021/12/09 23:11:30;;;;;;;2.08;1.08;;;;;;;;;;20919614;28;20051;-58
2021/12/09 23:21:33;;;;;;;1.60;0.98;;;;;;;;;;20918377;28;20123;-66
2021/12/09 23:31:36;;;;;;;4.07;2.13;;;;;;;;;;20916284;28;20495;-67
2021/12/09 23:41:40;;;;;;;2.47;0.73;;;;;;;;;;20916554;28;20056;-66
2021/12/09 23:51:45;;;;;;;1.60;0.93;;;;;;;;;;20915500;28;20084;-66
